• Join FlightAware (Why Join?)
  • Login
  • US Flag 
03:14AM EDT


 

Airport Tracker/Info


-or-


 

Live Flight TrackerFlight Track Log ✈ SWA920 ✈ 01-May-2013 ✈ KBNA - KCHS

Flight Track Log - Related Links

Times and Time Zones

All times are in EDT time to prevent confusion due to time zone crossing. See the SWA920 flight status page for this flight to view local times or setup timezone preferences in your user account.

Time Position Orientation Groundspeed Altitude Reporting Facility
EDT Latitude Longitude Course Direction KTS MPH feet Rate Location/Type
06:02PM 36.1000 -86.6833 122° Southeast 156 180 1,400  Level Nashville TRACON
06:03PM 36.0667 -86.6167 122° Southeast 232 267 3,900 2,220 Climbing Nashville TRACON
06:04PM 36.0667 -86.5500 90° East 255 293 6,400 2,820 Climbing Nashville TRACON
06:06PM 36.0708 -86.4178 88° East 278 320 10,800 2,640 Climbing Memphis Center
06:07PM 36.0700 -86.3203 91° East 297 342 12,800 2,700 Climbing Memphis Center
06:08PM 36.0703 -86.2022 90° East 323 372 16,300 3,180 Climbing Memphis Center
06:09PM 36.0703 -86.0789 90° East 346 398 19,200 2,820 Climbing Memphis Center
06:10PM 36.0594 -85.9486 96° East 371 427 22,000 2,340 Climbing Memphis Center
06:11PM 36.0450 -85.7053 94° East 430 495 25,600 1,860 Climbing Atlanta Center
06:12PM 36.0342 -85.5614 95° East 422 486 27,200 1,560 Climbing Atlanta Center
06:13PM 36.0214 -85.4044 96° East 435 501 28,800 900 Climbing Atlanta Center
06:14PM 35.9667 -85.2728 117° Southeast 435 501 29,000 240 Climbing Atlanta Center
06:15PM 35.8864 -85.1536 130° Southeast 430 495 29,300 900 Climbing Atlanta Center
06:16PM 35.8100 -85.0528 133° Southeast 438 504 30,900 1,800 Climbing Atlanta Center
06:17PM 35.7233 -84.9339 132° Southeast 453 521 32,900 1,500 Climbing Atlanta Center
06:18PM 35.6450 -84.8156 129° Southeast 453 521 34,000 1,320 Climbing Atlanta Center
06:19PM 35.5664 -84.7025 131° Southeast 453 521 35,600 1,380 Climbing Atlanta Center
06:20PM 35.4875 -84.5897 131° Southeast 442 509 36,800 1,080 Climbing Atlanta Center
06:21PM 35.4067 -84.4744 131° Southeast 442 509 37,800 1,080 Climbing Atlanta Center
06:22PM 35.3256 -84.3619 131° Southeast 437 503 39,000 600 Climbing Atlanta Center
06:23PM 35.2467 -84.2497 131° Southeast 437 503 39,000  Level Atlanta Center
06:24PM 35.1653 -84.1403 132° Southeast 437 503 39,000  Level Atlanta Center
06:25PM 35.0881 -84.0286 130° Southeast 437 503 39,000  Level Atlanta Center
06:26PM 35.0067 -83.9169 132° Southeast 437 503 39,000  Level Atlanta Center
06:27PM 34.9211 -83.7931 130° Southeast 437 503 39,000 -60 Level Atlanta Center
06:28PM 34.8519 -83.6997 132° Southeast 432 497 38,900 -600 Descending Atlanta Center
06:29PM 34.7722 -83.5886 131° Southeast 438 504 37,900 -1,020 Descending Atlanta Center
06:30PM 34.6778 -83.4681 134° Southeast 438 504 36,900 -960 Descending Atlanta Center
06:31PM 34.6042 -83.3600 130° Southeast 455 524 36,000 -900 Descending Atlanta Center
06:32PM 34.5200 -83.2472 132° Southeast 455 524 35,100 -960 Descending Atlanta Center
06:33PM 34.4294 -83.1222 131° Southeast 456 525 34,100 -1,080 Descending Atlanta Center
06:34PM 34.3450 -83.0122 133° Southeast 456 525 33,000 -600 Descending Atlanta Center
06:35PM 34.2647 -82.9003 131° Southeast 439 505 33,000 -120 Level Atlanta Center
06:36PM 34.1844 -82.7933 132° Southeast 439 505 32,800 -660 Descending Atlanta Center
06:37PM 34.1042 -82.6867 132° Southeast 433 498 31,700 -1,080 Descending Atlanta Center
06:38PM 34.0214 -82.5800 133° Southeast 433 498 30,700 -1,020 Descending Atlanta Center
06:39PM 33.9450 -82.4761 132° Southeast 424 488 29,700 -1,020 Descending Atlanta Center
06:40PM 33.8686 -82.3775 133° Southeast 417 480 28,700 -1,020 Descending Atlanta Center
06:41PM 33.7942 -82.2742 131° Southeast 412 474 27,700 -420 Descending Atlanta Center
06:45PM 33.6172 -81.8750 118° Southeast 407 468 27,000 -180 Descending Jacksonville Center
06:46PM 33.5786 -81.7508 110° East 407 468 27,000 -540 Level Jacksonville Center
06:47PM 33.5378 -81.6242 111° Southeast 407 468 26,000 -1,020 Descending Jacksonville Center
06:48PM 33.4989 -81.5003 111° Southeast 407 468 25,000 -540 Descending Jacksonville Center
06:49PM 33.4622 -81.3814 110° East 402 463 25,000  Level Jacksonville Center
06:50PM 33.4211 -81.2625 112° Southeast 389 448 25,000 -1,080 Level Jacksonville Center
06:51PM 33.3861 -81.1439 109° East 384 442 22,900 -2,520 Descending Jacksonville Center
06:52PM 33.3467 -81.0228 111° Southeast 379 436 20,000 -2,820 Descending Jacksonville Center
06:53PM 33.3072 -80.9017 111° Southeast 385 443 17,300 -2,640 Descending Jacksonville Center
06:54PM 33.2681 -80.7883 112° Southeast 385 443 14,800 -2,100 Descending Jacksonville Center
06:55PM 33.2283 -80.6750 113° Southeast 377 434 13,200 -1,980 Descending Jacksonville Center
06:56PM 33.1600 -80.5900 134° Southeast 362 417 10,900 -1,620 Descending Jacksonville Center
06:57PM 33.0961 -80.5122 134° Southeast 350 403 10,000 -1,260 Descending Jacksonville Center
06:58PM 33.0425 -80.4419 132° Southeast 318 366 8,400 -1,740 Descending Jacksonville Center
06:59PM 32.9892 -80.3789 135° Southeast 266 306 6,600 -1,800 Descending Jacksonville Center
07:00PM 32.9442 -80.3208 133° Southeast 266 306 4,800 -1,740 Descending Jacksonville Center
07:01PM 32.8950 -80.2628 135° Southeast 261 300 3,200 -1,380 Descending Jacksonville Center
07:02PM 32.8581 -80.2019 126° Southeast 249 287 2,100 -1,140 Descending Jacksonville Center
07:04PM 32.8833 -80.0333 79° East  Level FlightAware Approximate
07:11PM 32.8986 -80.0405 79° East  Level Estimated
07:12PM 32.8986 -80.0405 79° East  Level Estimated
07:13PM 32.8986 -80.0405 79° East  Level Estimated
07:14PM 32.8986 -80.0405 79° East  Level Estimated